Time;durP1;ratioP1;P1;durP2;ratioP2;P2;SDS_P1;SDS_P2;PMS_P1;PMS_P2;Temp;Humidity;BMP_temperature;BMP_pressure;BME280_temperature;BME280_humidity;BME280_pressure;Samples;Min_cycle;Max_cycle;Signal;HPM_P1;HPM_P2
2023/03/27 00:01:53;;;;;;;5.30;1.30;;;;;;;2.44;100.00;101331.81;5087837;28;20031;-66
2023/03/27 00:04:20;;;;;;;6.97;1.07;;;;;;;2.46;100.00;101339.59;5086958;28;20027;-66
2023/03/27 00:06:47;;;;;;;7.23;1.37;;;;;;;2.47;100.00;101343.91;5088197;28;20471;-66
2023/03/27 00:09:13;;;;;;;7.93;1.40;;;;;;;2.50;100.00;101350.16;5107967;28;20080;-66
2023/03/27 00:11:38;;;;;;;7.97;1.50;;;;;;;2.54;100.00;101350.41;5095132;28;20430;-66
2023/03/27 00:14:04;;;;;;;3.77;1.43;;;;;;;2.55;100.00;101347.94;5081177;28;20020;-66
2023/03/27 00:16:29;;;;;;;7.53;1.27;;;;;;;2.59;100.00;101360.16;5067870;28;20032;-66
2023/03/27 00:18:55;;;;;;;8.07;1.60;;;;;;;2.59;100.00;101365.28;5068305;28;20023;-66
2023/03/27 00:21:21;;;;;;;10.27;1.60;;;;;;;2.61;100.00;101362.84;5067810;28;20024;-66
2023/03/27 00:23:46;;;;;;;5.23;1.30;;;;;;;2.60;100.00;101364.53;5097888;28;20034;-66
2023/03/27 00:26:13;;;;;;;5.90;1.10;;;;;;;2.61;100.00;101381.66;5087721;28;20027;-66
2023/03/27 00:28:38;;;;;;;7.33;1.63;;;;;;;2.61;100.00;101386.75;5087666;28;20076;-66
2023/03/27 00:31:09;;;;;;;6.03;1.40;;;;;;;2.59;100.00;101390.88;5088103;28;20103;-66
2023/03/27 00:33:34;;;;;;;8.63;1.77;;;;;;;2.58;100.00;101389.09;5087623;28;20016;-66
2023/03/27 00:36:00;;;;;;;7.23;1.30;;;;;;;2.55;100.00;101386.34;5088258;28;20062;-66
2023/03/27 00:38:25;;;;;;;4.47;1.20;;;;;;;2.54;100.00;101387.09;5087527;28;20158;-66
2023/03/27 00:40:53;;;;;;;7.83;1.13;;;;;;;2.53;100.00;101395.56;5087777;28;20024;-66
2023/03/27 00:43:33;;;;;;;5.33;1.27;;;;;;;2.51;100.00;101392.00;5073835;28;20020;-66
2023/03/27 00:46:05;;;;;;;4.40;1.10;;;;;;;2.48;100.00;101396.91;5087626;28;20028;-66
2023/03/27 00:48:32;;;;;;;;;;;;;;;2.45;100.00;101399.19;5079615;28;20056;-66
2023/03/27 00:50:57;;;;;;;7.13;2.10;;;;;;;2.42;100.00;101392.19;5082025;28;19920;-66
2023/03/27 00:53:28;;;;;;;6.13;1.20;;;;;;;2.42;100.00;101399.88;5079686;28;20044;-65
2023/03/27 00:55:57;;;;;;;5.55;1.17;;;;;;;2.43;100.00;101403.34;5067579;28;20051;-65
2023/03/27 00:58:35;;;;;;;5.77;1.37;;;;;;;2.40;100.00;101409.09;5068140;28;20044;-66
2023/03/27 01:01:00;;;;;;;6.07;1.20;;;;;;;2.38;100.00;101411.56;5097838;28;20020;-66
2023/03/27 01:03:30;;;;;;;7.40;1.93;;;;;;;2.36;100.00;101418.22;5081811;28;20292;-65
2023/03/27 01:05:58;;;;;;;10.40;2.13;;;;;;;2.35;100.00;101416.44;5086936;28;20022;-65
2023/03/27 01:08:26;;;;;;;5.77;1.30;;;;;;;2.37;100.00;101420.00;5075615;28;20105;-66
2023/03/27 01:11:08;;;;;;;5.40;1.50;;;;;;;2.42;100.00;101427.13;5067722;28;20025;-66
2023/03/27 01:13:53;;;;;;;6.80;0.97;;;;;;;2.45;100.00;101438.47;5080971;28;20032;-65
2023/03/27 01:16:33;;;;;;;6.90;1.30;;;;;;;2.48;100.00;101428.47;5071093;28;20031;-66
2023/03/27 01:19:08;;;;;;;4.53;1.63;;;;;;;2.51;100.00;101438.06;5078062;28;20465;-66
2023/03/27 01:21:45;;;;;;;3.87;1.00;;;;;;;2.53;100.00;101441.63;5059465;28;20035;-66
2023/03/27 01:24:29;;;;;;;4.50;1.37;;;;;;;2.53;100.00;101439.06;5104699;28;20027;-65
2023/03/27 01:27:02;;;;;;;2.43;1.00;;;;;;;2.55;100.00;101451.97;5106601;28;20031;-65
2023/03/27 01:29:40;;;;;;;6.30;1.77;;;;;;;2.57;100.00;101453.88;5101511;28;20012;-65
2023/03/27 01:32:34;;;;;;;3.73;1.17;;;;;;;2.61;100.00;101450.75;5090377;28;20077;-65
2023/03/27 01:35:25;;;;;;;3.93;1.50;;;;;;;2.63;100.00;101444.09;5075252;28;20357;-66
2023/03/27 01:37:50;;;;;;;2.95;0.90;;;;;;;2.68;100.00;101444.41;5051617;28;20036;-65
2023/03/27 01:40:25;;;;;;;7.87;1.40;;;;;;;2.70;100.00;101449.66;5070979;28;20040;-66
2023/03/27 01:43:22;;;;;;;5.33;1.83;;;;;;;2.73;100.00;101455.00;5071808;28;20357;-65
2023/03/27 01:45:54;;;;;;;6.43;1.33;;;;;;;2.75;100.00;101463.69;5052355;28;20104;-65
2023/03/27 01:48:45;;;;;;;5.03;1.13;;;;;;;2.76;100.00;101461.25;5110476;28;20487;-66
2023/03/27 01:51:27;;;;;;;8.82;1.30;;;;;;;2.76;100.00;101471.47;5068894;28;20123;-66
2023/03/27 01:53:59;;;;;;;4.20;1.00;;;;;;;2.78;100.00;101470.69;5102650;28;20071;-66
2023/03/27 01:56:31;;;;;;;4.97;1.33;;;;;;;2.76;100.00;101470.59;5091272;28;20348;-65
2023/03/27 01:59:11;;;;;;;6.77;1.40;;;;;;;2.74;100.00;101469.56;5091385;28;20047;-66
2023/03/27 02:01:41;;;;;;;3.67;1.17;;;;;;;2.72;100.00;101477.16;5100614;28;20392;-65
2023/03/27 02:04:13;;;;;;;4.93;1.50;;;;;;;2.70;100.00;101475.25;5090475;28;20026;-65
2023/03/27 02:06:47;;;;;;;6.53;1.67;;;;;;;2.68;100.00;101472.56;5101786;28;20038;-65
2023/03/27 02:09:24;;;;;;;4.13;1.30;;;;;;;2.68;100.00;101476.81;5091125;28;20047;-66
2023/03/27 02:11:57;;;;;;;5.27;1.40;;;;;;;2.64;100.00;101481.69;5075201;28;20021;-66
2023/03/27 02:14:27;;;;;;;5.83;1.30;;;;;;;2.59;100.00;101488.13;5070438;28;20028;-65
2023/03/27 02:16:57;;;;;;;6.33;1.50;;;;;;;2.57;100.00;101486.25;5083974;28;20058;-66
2023/03/27 02:19:34;;;;;;;4.03;1.50;;;;;;;2.47;100.00;101492.31;5080394;28;20028;-66
2023/03/27 02:22:00;;;;;;;4.80;1.50;;;;;;;2.40;100.00;101499.56;5075126;28;20021;-66
2023/03/27 02:24:25;;;;;;;3.27;1.17;;;;;;;2.36;100.00;101496.63;5102321;28;20084;-66
2023/03/27 02:26:58;;;;;;;3.53;1.33;;;;;;;2.32;100.00;101515.09;5073335;28;20028;-66
2023/03/27 02:29:38;;;;;;;3.50;1.13;;;;;;;2.22;100.00;101509.25;5080113;28;20028;-65
2023/03/27 02:32:32;;;;;;;9.83;2.17;;;;;;;2.16;100.00;101514.78;5084986;28;20062;-65
2023/03/27 02:35:07;;;;;;;9.00;1.57;;;;;;;2.14;100.00;101513.78;5072721;28;20542;-66
2023/03/27 02:38:08;;;;;;;6.50;2.10;;;;;;;2.08;100.00;101513.31;5079741;28;20098;-65
2023/03/27 02:40:45;;;;;;;5.38;1.30;;;;;;;2.01;100.00;101511.06;5070885;28;20107;-66
2023/03/27 02:43:45;;;;;;;6.17;1.60;;;;;;;1.95;100.00;101515.69;5083067;28;20024;-65
2023/03/27 02:46:26;;;;;;;5.17;1.30;;;;;;;1.89;100.00;101532.31;5073584;28;20074;-65
2023/03/27 02:48:56;;;;;;;7.22;2.53;;;;;;;1.82;100.00;101519.81;5099207;28;20099;-65
2023/03/27 02:51:27;;;;;;;4.73;1.53;;;;;;;1.79;100.00;101530.72;5089242;28;20016;-65
2023/03/27 02:54:07;;;;;;;6.50;1.70;;;;;;;1.75;100.00;101535.44;5084607;28;20053;-65
2023/03/27 02:56:38;;;;;;;6.50;1.87;;;;;;;1.72;100.00;101531.00;5069364;28;20031;-66
2023/03/27 02:59:13;;;;;;;5.57;1.80;;;;;;;1.68;100.00;101537.53;5082793;28;20020;-65
2023/03/27 03:01:40;;;;;;;7.83;1.97;;;;;;;1.65;100.00;101533.84;5080117;28;20028;-66
2023/03/27 03:04:18;;;;;;;3.73;2.00;;;;;;;1.61;100.00;101540.38;5084896;28;20028;-65
2023/03/27 03:06:44;;;;;;;4.27;1.60;;;;;;;1.58;100.00;101541.78;5082464;28;20415;-66
2023/03/27 03:09:10;;;;;;;6.27;2.03;;;;;;;1.55;100.00;101548.44;5070185;28;20025;-66
2023/03/27 03:11:43;;;;;;;9.40;2.10;;;;;;;1.54;100.00;101551.78;5081910;28;20031;-65
2023/03/27 03:14:08;;;;;;;2.60;1.50;;;;;;;1.54;100.00;101549.22;5069567;28;20036;-65
2023/03/27 03:16:34;;;;;;;6.23;2.07;;;;;;;1.54;100.00;101558.53;5069988;28;20035;-65
2023/03/27 03:19:00;;;;;;;5.93;1.80;;;;;;;1.54;100.00;101567.09;5070606;28;20035;-66
2023/03/27 03:21:25;;;;;;;7.50;2.00;;;;;;;1.53;100.00;101572.09;5082607;28;20028;-66
2023/03/27 03:23:50;;;;;;;6.77;2.00;;;;;;;1.51;100.00;101571.06;5095736;28;20028;-65
2023/03/27 03:26:17;;;;;;;5.27;2.50;;;;;;;1.53;100.00;101569.53;5068877;28;20038;-65
2023/03/27 03:28:43;;;;;;;7.13;1.87;;;;;;;1.53;100.00;101572.97;5085883;28;20121;-65
2023/03/27 03:31:11;;;;;;;8.63;1.90;;;;;;;1.52;100.00;101575.41;5078037;28;20102;-66
2023/03/27 03:33:36;;;;;;;4.47;1.80;;;;;;;1.54;100.00;101577.31;5068691;28;20306;-65
2023/03/27 03:36:03;;;;;;;5.90;1.60;;;;;;;1.55;100.00;101581.66;5068450;28;20064;-65
2023/03/27 03:38:29;;;;;;;7.13;1.80;;;;;;;1.56;100.00;101588.53;5099795;28;20043;-65
2023/03/27 03:40:56;;;;;;;5.10;2.00;;;;;;;1.55;100.00;101596.09;5088531;28;20028;-66
2023/03/27 03:43:24;;;;;;;2.97;1.20;;;;;;;1.55;100.00;101601.19;5074821;28;20024;-65
2023/03/27 03:45:49;;;;;;;3.40;1.40;;;;;;;1.59;100.00;101603.22;5088541;28;20478;-65
2023/03/27 03:48:15;;;;;;;4.47;1.63;;;;;;;1.58;100.00;101604.03;5069080;28;20036;-65
2023/03/27 03:50:42;;;;;;;3.90;1.63;;;;;;;1.59;100.00;101613.47;5069059;28;20104;-65
2023/03/27 03:53:07;;;;;;;6.37;1.50;;;;;;;1.60;100.00;101610.13;5067776;28;20465;-66
2023/03/27 03:55:33;;;;;;;6.40;1.90;;;;;;;1.61;100.00;101614.47;5081719;28;20110;-65
2023/03/27 03:57:58;;;;;;;4.40;1.70;;;;;;;1.64;100.00;101617.28;5074349;28;20028;-65
2023/03/27 04:00:24;;;;;;;6.60;1.93;;;;;;;1.66;100.00;101620.84;5075398;28;20363;-65
2023/03/27 04:02:52;;;;;;;7.03;2.07;;;;;;;1.66;100.00;101620.84;5068368;28;20016;-65
2023/03/27 04:05:18;;;;;;;4.53;2.07;;;;;;;1.68;100.00;101634.66;5068709;28;20400;-65
2023/03/27 04:07:44;;;;;;;4.60;1.97;;;;;;;1.67;100.00;101637.97;5070015;28;20029;-66
2023/03/27 04:10:12;;;;;;;8.63;1.83;;;;;;;1.67;100.00;101643.06;5069807;28;20089;-65
2023/03/27 04:12:37;;;;;;;5.07;1.90;;;;;;;1.68;100.00;101634.66;5080370;28;20031;-65
2023/03/27 04:15:03;;;;;;;6.60;1.90;;;;;;;1.70;100.00;101646.66;5068335;28;20024;-66
2023/03/27 04:17:28;;;;;;;5.93;1.77;;;;;;;1.70;100.00;101647.56;5068200;28;20020;-66
2023/03/27 04:19:54;;;;;;;5.07;1.43;;;;;;;1.70;100.00;101651.75;5069912;28;20031;-65
2023/03/27 04:22:21;;;;;;;5.40;1.60;;;;;;;1.73;100.00;101646.88;5089014;28;20086;-65
2023/03/27 04:24:50;;;;;;;2.13;1.23;;;;;;;1.72;100.00;101655.34;5085416;28;20052;-65
2023/03/27 04:27:16;;;;;;;6.50;1.90;;;;;;;1.73;100.00;101657.09;5078532;28;20028;-66
2023/03/27 04:29:46;;;;;;;5.97;1.80;;;;;;;1.73;100.00;101654.56;5096038;28;20051;-65
2023/03/27 04:32:17;;;;;;;4.60;1.80;;;;;;;1.70;100.00;101667.09;5087276;28;20024;-66
2023/03/27 04:34:47;;;;;;;4.07;1.63;;;;;;;1.67;100.00;101668.63;5100924;28;20024;-65
2023/03/27 04:37:13;;;;;;;3.57;1.30;;;;;;;1.65;100.00;101680.41;5068322;28;20634;-65
2023/03/27 04:39:41;;;;;;;4.50;1.40;;;;;;;1.63;100.00;101681.03;5068038;28;20043;-66
2023/03/27 04:42:09;;;;;;;5.87;1.67;;;;;;;1.58;100.00;101685.78;5076062;28;20028;-66
2023/03/27 04:44:35;;;;;;;3.07;1.60;;;;;;;1.54;100.00;101697.41;5087638;28;20055;-65
2023/03/27 04:47:01;;;;;;;6.87;1.67;;;;;;;1.51;100.00;101697.13;5088168;28;20065;-65
2023/03/27 04:49:28;;;;;;;4.40;1.70;;;;;;;1.52;100.00;101698.03;5085528;28;20036;-65
2023/03/27 04:51:54;;;;;;;3.40;1.60;;;;;;;1.51;100.00;101701.38;5080843;28;20026;-65
2023/03/27 04:54:21;;;;;;;5.40;2.10;;;;;;;1.52;100.00;101695.47;5069155;28;20045;-65
2023/03/27 04:56:47;;;;;;;2.03;1.50;;;;;;;1.51;100.00;101701.38;5061341;28;20044;-65
2023/03/27 04:59:12;;;;;;;7.90;1.80;;;;;;;1.52;100.00;101701.50;5060819;28;20458;-65
2023/03/27 05:01:37;;;;;;;4.93;1.60;;;;;;;1.53;100.00;101708.38;5070544;28;20392;-65
2023/03/27 05:04:03;;;;;;;4.47;2.10;;;;;;;1.55;100.00;101716.16;5075443;28;20075;-65
2023/03/27 05:06:28;;;;;;;6.63;1.80;;;;;;;1.55;100.00;101711.06;5061817;28;20055;-66
2023/03/27 05:08:53;;;;;;;4.80;1.47;;;;;;;1.59;100.00;101719.88;5053176;28;20613;-65
2023/03/27 05:11:19;;;;;;;5.43;2.63;;;;;;;1.60;100.00;101717.44;5053337;28;20124;-65
2023/03/27 05:13:44;;;;;;;4.97;1.97;;;;;;;1.62;100.00;101726.13;5050138;28;20036;-65
2023/03/27 05:16:10;;;;;;;3.47;1.70;;;;;;;1.65;100.00;101722.94;5049893;28;20035;-65
2023/03/27 05:18:37;;;;;;;4.90;1.40;;;;;;;1.64;100.00;101727.16;5048327;28;20029;-66
2023/03/27 05:21:03;;;;;;;4.00;1.50;;;;;;;1.66;100.00;101734.94;5051473;28;20036;-65
2023/03/27 05:23:28;;;;;;;8.70;2.07;;;;;;;1.69;100.00;101737.78;5068856;28;20025;-66
2023/03/27 05:25:55;;;;;;;6.97;2.17;;;;;;;1.68;100.00;101747.09;5050901;28;20028;-65
2023/03/27 05:28:21;;;;;;;5.80;1.70;;;;;;;1.70;100.00;101760.00;5069164;28;20028;-65
2023/03/27 05:30:47;;;;;;;4.90;1.70;;;;;;;1.71;100.00;101748.13;5050657;28;20071;-65
2023/03/27 05:33:12;;;;;;;6.43;2.00;;;;;;;1.72;100.00;101757.56;5064288;28;20255;-65
2023/03/27 05:35:40;;;;;;;4.73;1.90;;;;;;;1.73;100.00;101752.59;5069922;28;20133;-65
2023/03/27 05:38:07;;;;;;;7.97;1.77;;;;;;;1.72;100.00;101757.56;5052210;28;20504;-66
2023/03/27 05:40:33;;;;;;;4.43;1.70;;;;;;;1.71;100.00;101758.34;5055899;28;20028;-65
2023/03/27 05:42:59;;;;;;;4.63;1.50;;;;;;;1.70;100.00;101762.56;5054620;28;20059;-65
2023/03/27 05:45:24;;;;;;;6.00;1.87;;;;;;;1.70;100.00;101759.09;5047858;28;20477;-65
2023/03/27 05:47:55;;;;;;;3.03;1.53;;;;;;;1.71;100.00;101768.56;5060921;28;20032;-65
2023/03/27 05:50:24;;;;;;;4.75;1.90;;;;;;;1.74;100.00;101776.50;5053015;28;20036;-65
2023/03/27 05:52:57;;;;;;;4.90;2.37;;;;;;;1.77;100.00;101780.19;5065346;28;20031;-66
2023/03/27 05:55:23;;;;;;;6.80;1.80;;;;;;;1.82;100.00;101777.13;5081337;28;20103;-65
2023/03/27 05:57:49;;;;;;;5.40;2.00;;;;;;;1.87;100.00;101784.41;5074213;28;20074;-66
2023/03/27 06:00:15;;;;;;;4.67;2.30;;;;;;;1.94;100.00;101784.91;5085861;28;20379;-66
2023/03/27 06:02:42;;;;;;;5.93;1.80;;;;;;;2.03;100.00;101790.78;5072929;28;20030;-67
2023/03/27 06:05:15;;;;;;;3.73;1.90;;;;;;;2.11;100.00;101788.84;5081299;28;20044;-67
2023/03/27 06:07:41;;;;;;;5.17;1.70;;;;;;;2.21;100.00;101800.75;5082072;28;20016;-67
2023/03/27 06:10:09;;;;;;;5.90;1.90;;;;;;;2.32;100.00;101809.28;5080105;28;20031;-67
2023/03/27 06:12:36;;;;;;;5.50;2.10;;;;;;;2.39;100.00;101809.88;5071929;28;20032;-67
2023/03/27 06:15:06;;;;;;;6.80;2.27;;;;;;;2.45;100.00;101823.94;5076399;28;20029;-67
2023/03/27 06:17:32;;;;;;;3.93;2.07;;;;;;;2.45;100.00;101829.97;5079490;28;20027;-67
2023/03/27 06:19:57;;;;;;;4.97;1.50;;;;;;;2.44;100.00;101833.31;5074681;28;20651;-67
2023/03/27 06:22:22;;;;;;;5.53;1.83;;;;;;;2.39;100.00;101830.34;5083483;28;20375;-67
2023/03/27 06:24:48;;;;;;;3.83;1.80;;;;;;;2.36;100.00;101827.56;5098410;28;20027;-68
2023/03/27 06:27:13;;;;;;;4.17;1.53;;;;;;;2.37;100.00;101823.34;5090010;28;20031;-67
2023/03/27 06:29:39;;;;;;;5.53;1.40;;;;;;;2.36;100.00;101825.00;5089771;28;20050;-67
2023/03/27 06:32:05;;;;;;;4.80;1.37;;;;;;;2.35;100.00;101824.88;5076222;28;20569;-67
2023/03/27 06:34:30;;;;;;;3.17;1.13;;;;;;;2.36;100.00;101837.78;5089578;28;20028;-68
2023/03/27 06:36:58;;;;;;;4.20;0.90;;;;;;;2.36;100.00;101827.56;5085880;28;20114;-67
2023/03/27 06:39:26;;;;;;;3.57;1.20;;;;;;;2.37;100.00;101837.03;5075068;28;20044;-67
2023/03/27 06:41:51;;;;;;;2.20;1.00;;;;;;;2.38;100.00;101836.25;5083120;28;20039;-67
2023/03/27 06:44:16;;;;;;;3.20;1.20;;;;;;;2.39;100.00;101835.47;5082193;28;20032;-67
2023/03/27 06:46:42;;;;;;;2.73;1.30;;;;;;;2.38;100.00;101851.63;5088981;28;20621;-67
2023/03/27 06:49:07;;;;;;;4.03;0.90;;;;;;;2.42;100.00;101849.28;5090088;28;20038;-68
2023/03/27 06:51:33;;;;;;;3.23;1.00;;;;;;;2.44;100.00;101850.31;5089404;28;20027;-67
2023/03/27 06:53:58;;;;;;;2.37;1.00;;;;;;;2.67;100.00;101848.72;5090011;28;20289;-67
2023/03/27 06:56:23;;;;;;;6.93;1.73;;;;;;;3.34;100.00;101862.56;5089286;28;20085;-68
2023/03/27 06:58:48;;;;;;;2.63;1.50;;;;;;;4.16;100.00;101861.81;5074412;28;20055;-68
2023/03/27 07:01:14;;;;;;;4.80;1.60;;;;;;;5.11;100.00;101859.16;5100338;28;20490;-68
2023/03/27 07:03:39;;;;;;;4.25;1.50;;;;;;;6.12;100.00;101873.75;5074049;28;20021;-68
2023/03/27 07:06:05;;;;;;;1.83;1.30;;;;;;;6.89;100.00;101870.91;5087077;28;20020;-68
2023/03/27 07:08:30;;;;;;;2.17;1.27;;;;;;;7.45;100.00;101882.13;5086363;28;20030;-69
2023/03/27 07:10:55;;;;;;;4.05;1.33;;;;;;;7.89;100.00;101873.50;5087713;28;20034;-69
2023/03/27 07:13:20;;;;;;;1.90;1.10;;;;;;;8.19;100.00;101880.38;5086386;28;20081;-69
2023/03/27 07:15:46;;;;;;;5.40;1.27;;;;;;;8.27;98.95;101879.16;5082416;28;20033;-69
2023/03/27 07:18:11;;;;;;;5.63;1.75;;;;;;;8.36;95.29;101881.38;5096211;28;20034;-68
2023/03/27 07:20:37;;;;;;;2.80;0.90;;;;;;;8.43;93.81;101892.97;5089354;28;20030;-69
2023/03/27 07:23:03;;;;;;;3.47;1.10;;;;;;;8.41;89.44;101891.19;5099591;28;20028;-68
2023/03/27 07:25:36;;;;;;;3.55;1.30;;;;;;;8.56;91.42;101895.50;5078553;28;20031;-68
2023/03/27 07:28:06;;;;;;;3.90;1.02;;;;;;;8.74;90.12;101899.91;5088561;28;20016;-68
2023/03/27 07:30:32;;;;;;;2.53;1.25;;;;;;;9.02;90.31;101898.88;5095062;28;20015;-69
2023/03/27 07:32:58;;;;;;;3.95;1.40;;;;;;;9.29;89.69;101901.19;5096159;28;20491;-68
2023/03/27 07:35:24;;;;;;;4.50;1.38;;;;;;;9.23;83.91;101906.03;5080651;28;20043;-68
2023/03/27 07:37:52;;;;;;;2.70;0.95;;;;;;;8.63;81.47;101907.94;5107870;28;20027;-68
2023/03/27 07:40:21;;;;;;;5.13;1.20;;;;;;;8.33;90.38;101901.88;5082217;28;20028;-67
2023/03/27 07:42:48;;;;;;;4.35;1.50;;;;;;;8.45;90.39;101909.44;5068950;28;20021;-68
2023/03/27 07:45:14;;;;;;;4.30;2.13;;;;;;;8.29;86.39;101904.25;5088969;28;20020;-67
2023/03/27 07:47:40;;;;;;;4.65;1.42;;;;;;;8.32;90.41;101908.72;5087776;28;20027;-68
2023/03/27 07:50:09;;;;;;;4.43;1.45;;;;;;;8.86;90.80;101910.94;5076605;28;20028;-68
2023/03/27 07:52:35;;;;;;;3.55;1.10;;;;;;;9.61;88.58;101912.38;5087120;28;20059;-68
2023/03/27 07:55:01;;;;;;;4.70;1.23;;;;;;;10.02;82.90;101911.88;5088742;28;20537;-69
2023/03/27 07:57:26;;;;;;;4.75;1.60;;;;;;;10.39;81.49;101917.16;5087934;28;20107;-68
2023/03/27 07:59:53;;;;;;;3.60;1.25;;;;;;;10.83;79.27;101920.16;5088923;28;20550;-68
2023/03/27 08:02:18;;;;;;;2.28;1.00;;;;;;;11.10;76.60;101924.03;5090214;28;20032;-68
2023/03/27 08:04:43;;;;;;;5.30;1.30;;;;;;;11.43;75.95;101923.81;5108206;28;20031;-68
2023/03/27 08:07:10;;;;;;;4.47;1.20;;;;;;;11.60;70.48;101926.28;5092381;28;20019;-68
2023/03/27 08:09:36;;;;;;;2.97;1.10;;;;;;;11.83;69.64;101919.53;5088056;28;20020;-68
2023/03/27 08:12:02;;;;;;;2.97;1.33;;;;;;;12.00;68.44;101928.06;5090180;28;20036;-68
2023/03/27 08:14:28;;;;;;;3.95;1.27;;;;;;;12.17;66.90;101927.03;5097805;28;20474;-68
2023/03/27 08:16:53;;;;;;;4.22;1.15;;;;;;;12.18;65.61;101941.81;5087297;28;20023;-68
2023/03/27 08:19:20;;;;;;;4.65;1.08;;;;;;;12.18;67.19;101932.28;5076926;28;20027;-68
2023/03/27 08:21:45;;;;;;;3.13;0.90;;;;;;;12.22;63.94;101929.00;5077438;28;20015;-68
2023/03/27 08:24:10;;;;;;;5.20;1.02;;;;;;;12.11;64.79;101935.44;5093507;28;20015;-68
2023/03/27 08:26:35;;;;;;;4.75;1.23;;;;;;;12.03;66.93;101937.69;5076579;28;20024;-68
2023/03/27 08:29:02;;;;;;;5.20;1.40;;;;;;;11.79;64.67;101942.69;5077434;28;20022;-68
2023/03/27 08:31:30;;;;;;;3.90;1.00;;;;;;;11.76;64.76;101939.13;5080774;28;20058;-68
2023/03/27 08:33:55;;;;;;;5.85;1.17;;;;;;;11.92;64.18;101951.91;5081587;28;20498;-68
2023/03/27 08:36:21;;;;;;;3.50;1.27;;;;;;;12.16;65.16;101954.72;5081356;28;20020;-68
2023/03/27 08:38:47;;;;;;;2.92;0.70;;;;;;;11.85;62.71;101961.16;5086497;28;20119;-69
2023/03/27 08:41:24;;;;;;;3.53;0.80;;;;;;;11.59;63.80;101953.06;5080775;28;20096;-67
2023/03/27 08:43:50;;;;;;;4.15;0.75;;;;;;;11.53;66.58;101956.28;5077399;28;20549;-67
2023/03/27 08:46:22;;;;;;;8.10;1.27;;;;;;;11.00;65.42;101964.19;5071385;28;20315;-68
2023/03/27 08:48:55;;;;;;;1.83;0.70;;;;;;;10.62;68.02;101959.78;5077906;28;20024;-68
2023/03/27 08:51:40;;;;;;;4.95;1.10;;;;;;;10.39;70.07;101962.09;5069933;28;20028;-68
2023/03/27 08:54:24;;;;;;;3.42;0.85;;;;;;;10.54;72.83;101964.59;5078275;28;20047;-68
2023/03/27 08:56:50;;;;;;;3.25;0.73;;;;;;;10.74;71.57;101975.06;5084959;28;20545;-68
2023/03/27 08:59:19;;;;;;;5.47;1.35;;;;;;;10.97;70.28;101971.84;5080313;28;20151;-68
2023/03/27 09:01:57;;;;;;;3.97;0.85;;;;;;;10.97;68.73;101972.72;5075922;28;20035;-68
2023/03/27 09:04:47;;;;;;;3.22;0.57;;;;;;;10.88;67.24;101980.06;5074541;28;20028;-68
2023/03/27 09:07:23;;;;;;;2.30;0.65;;;;;;;10.51;67.09;101980.00;5079524;28;20313;-67
2023/03/27 09:10:22;;;;;;;4.65;1.27;;;;;;;10.01;69.43;101985.19;5076353;28;20021;-67
2023/03/27 09:13:03;;;;;;;3.00;0.73;;;;;;;9.78;71.45;101982.28;5072484;28;20178;-68
2023/03/27 09:15:33;;;;;;;4.22;0.80;;;;;;;9.54;71.61;101980.16;5075961;28;20023;-69
2023/03/27 09:18:22;;;;;;;4.20;0.70;;;;;;;9.24;72.86;101993.16;5072759;28;20103;-67
2023/03/27 09:21:02;;;;;;;1.27;0.60;;;;;;;8.85;71.08;101986.69;5074321;28;20077;-68
2023/03/27 09:23:37;;;;;;;3.72;0.82;;;;;;;8.73;72.21;101993.75;5067234;28;20111;-68
2023/03/27 09:26:22;;;;;;;2.10;1.00;;;;;;;8.94;72.91;101993.22;5081253;28;20048;-68
2023/03/27 09:29:00;;;;;;;3.30;0.75;;;;;;;9.35;73.34;101997.22;5077583;28;20085;-68
2023/03/27 09:31:43;;;;;;;3.65;0.70;;;;;;;9.63;73.71;101999.56;5086605;28;20814;-69
2023/03/27 09:34:14;;;;;;;2.05;0.40;;;;;;;9.41;77.08;102037.22;5070776;28;20029;-68
2023/03/27 09:36:40;;;;;;;1.88;0.47;;;;;;;8.72;78.73;102051.41;5079201;28;20424;-68
2023/03/27 09:39:11;;;;;;;3.72;0.50;;;;;;;8.04;83.36;102043.94;5073265;28;20090;-69
2023/03/27 09:41:41;;;;;;;1.80;0.40;;;;;;;7.38;86.28;102039.84;5071234;28;20106;-68
2023/03/27 09:44:19;;;;;;;0.27;0.10;;;;;;;6.93;87.36;102040.41;5070420;28;20115;-68
2023/03/27 09:46:48;;;;;;;1.42;0.30;;;;;;;6.59;91.26;102040.72;5075351;28;20028;-68
2023/03/27 09:49:16;;;;;;;0.40;0.15;;;;;;;6.41;92.86;102049.00;5076338;28;20032;-68
2023/03/27 09:51:43;;;;;;;1.77;0.30;;;;;;;6.46;97.27;102050.19;5087782;28;20024;-68
2023/03/27 09:54:13;;;;;;;1.45;0.20;;;;;;;6.58;98.22;102041.53;5079422;28;20071;-68
2023/03/27 09:56:52;;;;;;;1.95;0.30;;;;;;;6.80;98.96;102043.00;5077146;28;20036;-69
2023/03/27 09:59:25;;;;;;;0.70;0.40;;;;;;;6.97;95.28;102046.66;5078492;28;20024;-68
2023/03/27 10:01:56;;;;;;;2.67;0.50;;;;;;;7.04;96.00;102051.44;5074718;28;20029;-68
2023/03/27 10:04:23;;;;;;;2.47;0.75;;;;;;;7.06;93.31;102062.75;5078820;28;20012;-68
2023/03/27 10:07:00;;;;;;;1.75;0.40;;;;;;;7.05;92.28;102050.63;5075237;28;20025;-68
2023/03/27 10:09:33;;;;;;;0.95;0.40;;;;;;;7.05;93.64;102049.78;5079959;28;20025;-69
2023/03/27 10:12:19;;;;;;;2.33;0.50;;;;;;;7.10;94.13;102061.28;5084621;28;20024;-68
2023/03/27 10:14:50;;;;;;;1.55;0.40;;;;;;;7.31;93.42;102064.34;5076619;28;20064;-68
2023/03/27 10:17:27;;;;;;;3.97;0.68;;;;;;;7.56;91.73;102059.88;5080619;28;20099;-69
2023/03/27 10:20:00;;;;;;;3.67;0.50;;;;;;;7.78;89.25;102058.66;5084853;28;20032;-69
2023/03/27 10:22:36;;;;;;;1.95;0.45;;;;;;;8.04;90.32;102049.09;5082907;28;20036;-69
2023/03/27 10:25:05;;;;;;;4.05;0.50;;;;;;;8.27;87.10;102058.22;5079113;28;20279;-69
2023/03/27 10:27:34;;;;;;;3.45;0.57;;;;;;;8.58;90.22;102048.88;5088213;28;20030;-69
2023/03/27 10:30:00;;;;;;;2.40;0.50;;;;;;;8.85;88.20;102043.56;5072044;28;20458;-68
2023/03/27 10:32:46;;;;;;;6.22;0.80;;;;;;;9.04;85.30;102054.09;5093089;28;20039;-69
2023/03/27 10:35:33;;;;;;;2.13;0.98;;;;;;;8.95;84.30;102046.69;5079661;28;20017;-68
2023/03/27 10:38:00;;;;;;;3.60;0.80;;;;;;;8.89;83.87;102050.72;5079698;28;20415;-68
2023/03/27 10:40:29;;;;;;;4.00;0.70;;;;;;;8.79;83.20;102045.81;5086904;28;20039;-69
2023/03/27 10:42:56;;;;;;;3.28;0.60;;;;;;;8.55;83.56;102052.94;5089367;28;20024;-68
2023/03/27 10:45:23;;;;;;;2.47;0.73;;;;;;;8.44;82.09;102048.03;5081201;28;20217;-68
2023/03/27 10:47:53;;;;;;;2.97;0.80;;;;;;;8.57;87.17;102052.28;5082281;28;20035;-68
2023/03/27 10:50:26;;;;;;;3.25;0.85;;;;;;;8.77;84.37;102055.16;5077815;28;20147;-68
2023/03/27 10:53:14;;;;;;;7.88;1.17;;;;;;;8.94;79.96;102055.28;5067167;28;20043;-68
2023/03/27 10:55:53;;;;;;;3.35;0.90;;;;;;;9.11;77.98;102048.47;5081377;28;20040;-68
2023/03/27 10:58:40;;;;;;;3.53;0.82;;;;;;;9.25;78.47;102083.78;5067205;28;20017;-68
2023/03/27 11:01:22;;;;;;;2.72;0.90;;;;;;;8.76;77.27;102108.53;5080744;28;20044;-68
2023/03/27 11:04:10;;;;;;;2.67;0.50;;;;;;;8.13;81.49;102109.03;5083358;28;20019;-68
2023/03/27 11:06:40;;;;;;;1.02;0.55;;;;;;;7.74;84.90;102122.09;5069358;28;20029;-67
2023/03/27 11:09:29;;;;;;;2.65;0.55;;;;;;;7.16;90.61;102133.84;5074095;28;20058;-68
2023/03/27 11:12:00;;;;;;;3.90;0.82;;;;;;;6.73;92.85;102131.84;5073797;28;20032;-68
2023/03/27 11:14:37;;;;;;;2.33;0.80;;;;;;;6.42;98.30;102128.03;5068780;28;20151;-68
2023/03/27 11:17:06;;;;;;;2.88;0.60;;;;;;;6.23;100.00;102137.06;5069021;28;20025;-68
2023/03/27 11:19:55;;;;;;;2.67;0.57;;;;;;;6.09;100.00;102137.75;5068647;28;20086;-67
2023/03/27 11:22:44;;;;;;;1.65;0.70;;;;;;;6.01;100.00;102129.44;5078042;28;20073;-67
2023/03/27 11:25:24;;;;;;;3.10;0.90;;;;;;;5.97;100.00;102132.59;5107428;28;20028;-68
2023/03/27 11:28:17;;;;;;;5.28;1.08;;;;;;;5.98;100.00;102127.56;5079168;28;20025;-68
2023/03/27 11:30:49;;;;;;;2.45;0.73;;;;;;;6.12;100.00;102127.66;5068606;28;20418;-67
2023/03/27 11:33:35;;;;;;;4.85;0.93;;;;;;;6.29;100.00;102133.13;5083085;28;20025;-68
2023/03/27 11:36:40;;;;;;;3.70;0.65;;;;;;;6.60;100.00;102132.69;5077380;28;20168;-68
2023/03/27 11:39:12;;;;;;;2.67;0.65;;;;;;;6.85;100.00;102116.34;5066335;28;20511;-68
2023/03/27 11:41:37;;;;;;;3.30;0.77;;;;;;;7.09;100.00;102126.50;5086242;28;20450;-68
2023/03/27 11:44:03;;;;;;;3.17;0.88;;;;;;;7.39;100.00;102119.03;5088238;28;20896;-68